Atlanta, Georgia
Current Conditions -  °F | °C
As of 4:52 PM on Monday 22 Dec 2014 (Local Time) from KATL Reporting Station
Haze Haze  
Wind Chill: 40°   Ceiling: 500
Heat Index: 46°   Visibility: 1mi
Dew Point: 43°   Wind: 13mph
Humidity: 89%   Direction: 90°E
Pressure: 29.91"   Gusts: NA
Location:  33.75°N, 84.39°W
Report Text: KATL 222152Z 09011KT 1SM BR OVC005 08/06 A2991 RMK AO2 SFC VIS 6 RAE44 SLP131 VIS LWR S-SW VCSH P0008 T00780061
Loading
Personal Weather Stations






























Interactive Weather Map New forecast layout! Learn more

10-Day Weather Forecast

Advertisements
Track Severe Weather on mobile